Time;durP1;ratioP1;P1;durP2;ratioP2;P2;SDS_P1;SDS_P2;PMS_P1;PMS_P2;Temp;Humidity;BMP_temperature;BMP_pressure;BME280_temperature;BME280_humidity;BME280_pressure;Samples;Min_cycle;Max_cycle;Signal;HPM_P1;HPM_P2
2021/04/18 00:00:52;;;;;;;15.50;7.70;;;;;;;3.39;90.33;101574.59;5015491;28;20189;-67
2021/04/18 00:03:17;;;;;;;19.57;7.90;;;;;;;3.53;90.25;101577.03;5014009;28;20181;-67
2021/04/18 00:05:43;;;;;;;21.63;8.60;;;;;;;3.61;89.99;101577.81;5015843;28;20280;-68
2021/04/18 00:08:09;;;;;;;18.17;7.37;;;;;;;3.65;89.57;101576.88;5015096;28;20197;-68
2021/04/18 00:10:37;;;;;;;18.23;8.13;;;;;;;3.67;89.84;101575.09;5015305;28;20210;-68
2021/04/18 00:13:04;;;;;;;22.87;7.37;;;;;;;3.67;89.03;101577.72;5030267;28;20218;-68
2021/04/18 00:15:29;;;;;;;15.53;6.73;;;;;;;3.67;89.76;101584.78;5013884;28;20170;-68
2021/04/18 00:17:55;;;;;;;23.10;7.47;;;;;;;3.71;88.96;101583.84;5013767;28;20188;-68
2021/04/18 00:20:20;;;;;;;21.10;6.20;;;;;;;3.76;89.03;101582.03;5014996;28;20199;-68
2021/04/18 00:22:46;;;;;;;17.07;7.20;;;;;;;3.86;88.61;101583.66;5013572;28;20220;-67
2021/04/18 00:25:13;;;;;;;27.37;7.40;;;;;;;3.85;89.11;101568.72;5014688;28;20207;-67
2021/04/18 00:27:39;;;;;;;20.07;6.37;;;;;;;3.80;89.17;101578.47;5013251;28;20189;-67
2021/04/18 00:30:06;;;;;;;18.80;6.67;;;;;;;3.90;88.19;101576.56;5029961;28;20180;-67
2021/04/18 00:32:31;;;;;;;22.67;6.87;;;;;;;3.84;88.42;101569.59;5029769;28;20736;-67
2021/04/18 00:34:57;;;;;;;17.33;6.83;;;;;;;3.87;88.38;101573.97;5013191;28;20184;-67
2021/04/18 00:37:22;;;;;;;16.37;6.77;;;;;;;3.86;87.83;101569.59;5014633;28;20244;-67
2021/04/18 00:39:47;;;;;;;17.07;5.47;;;;;;;3.85;87.61;101570.47;4996923;28;20191;-68
2021/04/18 00:42:13;;;;;;;18.87;6.37;;;;;;;3.78;87.63;101556.50;5029186;28;20549;-67
2021/04/18 00:44:38;;;;;;;20.03;7.23;;;;;;;3.80;87.60;101564.41;5013005;28;20173;-67
2021/04/18 00:47:03;;;;;;;12.53;6.50;;;;;;;3.75;87.67;101572.38;5029599;28;20208;-67
2021/04/18 00:49:29;;;;;;;13.87;6.00;;;;;;;3.81;88.15;101572.28;5014492;28;20177;-67
2021/04/18 00:51:54;;;;;;;20.70;6.37;;;;;;;3.64;88.41;101563.69;5014478;28;20168;-67
2021/04/18 00:54:19;;;;;;;16.37;6.40;;;;;;;3.76;87.92;101566.22;5029471;28;20177;-68
2021/04/18 00:56:44;;;;;;;19.37;6.97;;;;;;;3.73;88.51;101556.56;5014644;28;20250;-68
2021/04/18 00:59:10;;;;;;;16.07;7.57;;;;;;;3.81;88.81;101560.84;5014455;28;20170;-68
2021/04/18 01:01:36;;;;;;;16.63;7.57;;;;;;;3.88;88.28;101559.88;5014094;28;20196;-67
2021/04/18 01:04:02;;;;;;;22.30;7.87;;;;;;;3.93;88.47;101572.13;5014138;28;20168;-68
2021/04/18 01:06:27;;;;;;;22.90;8.90;;;;;;;4.06;88.40;101573.69;5014189;28;20235;-68
2021/04/18 01:08:52;;;;;;;17.60;8.13;;;;;;;4.15;87.08;101572.69;5012748;28;20211;-68
2021/04/18 01:11:17;;;;;;;18.90;8.37;;;;;;;4.14;86.97;101575.38;5029915;28;20173;-68
2021/04/18 01:13:43;;;;;;;19.67;9.10;;;;;;;4.03;88.06;101579.00;5013927;28;20204;-68
2021/04/18 01:16:08;;;;;;;16.73;8.50;;;;;;;4.13;87.00;101579.78;5028892;28;20200;-68
2021/04/18 01:18:33;;;;;;;23.40;9.57;;;;;;;3.94;87.68;101576.50;5029153;28;20232;-68
2021/04/18 01:21:07;;;;;;;18.33;9.20;;;;;;;3.99;88.67;101581.72;5014231;28;20196;-68
2021/04/18 01:23:32;;;;;;;19.60;9.90;;;;;;;3.78;89.14;101582.91;5013845;28;20169;-67
2021/04/18 01:25:57;;;;;;;20.90;9.63;;;;;;;3.83;88.46;101581.06;5012318;28;20176;-68
2021/04/18 01:28:23;;;;;;;17.73;9.37;;;;;;;4.01;88.58;101569.38;5012631;28;20200;-67
2021/04/18 01:30:48;;;;;;;23.43;9.83;;;;;;;4.00;88.08;101576.41;5014265;28;20176;-68
2021/04/18 01:33:13;;;;;;;21.50;9.77;;;;;;;4.08;88.28;101571.88;5029560;28;20173;-68
2021/04/18 01:35:39;;;;;;;20.73;9.67;;;;;;;4.10;88.28;101569.25;5013133;28;20202;-68
2021/04/18 01:38:09;;;;;;;23.30;10.27;;;;;;;3.97;88.29;101571.19;5028805;28;20192;-68
2021/04/18 01:40:34;;;;;;;29.47;11.50;;;;;;;3.92;88.63;101574.78;5028682;28;20192;-68
2021/04/18 01:42:59;;;;;;;19.90;10.27;;;;;;;4.12;88.42;101569.22;5028680;28;20609;-68
2021/04/18 01:45:26;;;;;;;17.17;11.17;;;;;;;4.08;88.75;101565.72;5013530;28;20177;-68
2021/04/18 01:47:51;;;;;;;32.57;12.33;;;;;;;3.99;88.75;101565.88;5028536;28;20212;-67
2021/04/18 01:50:17;;;;;;;18.67;10.37;;;;;;;4.13;87.84;101569.22;5029041;28;20177;-68
2021/04/18 01:52:43;;;;;;;19.93;10.93;;;;;;;4.07;88.06;101556.94;5028904;28;20641;-68
2021/04/18 01:55:09;;;;;;;22.97;10.70;;;;;;;4.16;88.07;101558.59;5028014;28;20227;-68
2021/04/18 01:57:35;;;;;;;25.87;11.73;;;;;;;4.16;88.13;101557.72;5012326;28;20600;-68
2021/04/18 02:00:00;;;;;;;20.97;11.60;;;;;;;3.90;89.87;101566.88;5013375;28;20200;-68
2021/04/18 02:02:26;;;;;;;24.03;12.43;;;;;;;3.80;90.38;101564.41;5012479;28;20197;-68
2021/04/18 02:04:54;;;;;;;26.43;12.80;;;;;;;3.92;89.99;101569.50;5013365;28;20165;-68
2021/04/18 02:07:20;;;;;;;25.03;12.80;;;;;;;4.03;89.54;101562.28;5028489;28;20193;-68
2021/04/18 02:09:45;;;;;;;23.87;12.13;;;;;;;4.10;89.73;101568.38;5013269;28;20184;-68
2021/04/18 02:12:11;;;;;;;22.33;12.23;;;;;;;4.11;88.85;101564.84;5013395;28;20173;-68
2021/04/18 02:14:36;;;;;;;27.03;13.00;;;;;;;4.15;88.30;101562.13;5028818;28;20164;-68
2021/04/18 02:17:03;;;;;;;26.13;12.63;;;;;;;4.12;89.40;101559.53;5013392;28;20204;-68
2021/04/18 02:19:28;;;;;;;22.00;11.90;;;;;;;4.03;89.00;101542.03;5013600;28;20191;-68
2021/04/18 02:21:54;;;;;;;18.50;11.40;;;;;;;4.11;89.34;101544.59;5013361;28;20197;-68
2021/04/18 02:24:19;;;;;;;22.67;11.97;;;;;;;4.17;89.42;101546.25;5028594;28;20164;-68
2021/04/18 02:26:45;;;;;;;24.47;12.40;;;;;;;4.22;88.44;101562.91;5013183;28;20286;-68
2021/04/18 02:29:10;;;;;;;21.57;12.47;;;;;;;4.24;88.52;101566.41;5013012;28;20173;-67
2021/04/18 02:31:35;;;;;;;28.87;12.83;;;;;;;4.13;89.17;101561.28;5012134;28;20185;-68
2021/04/18 02:34:01;;;;;;;22.30;12.20;;;;;;;4.15;89.76;101564.78;5013512;28;20565;-68
2021/04/18 02:36:26;;;;;;;24.37;13.17;;;;;;;4.20;89.53;101567.34;5013147;28;20216;-68
2021/04/18 02:38:51;;;;;;;20.77;12.50;;;;;;;4.24;89.70;101555.81;5013837;28;20180;-67
2021/04/18 02:41:17;;;;;;;23.93;13.23;;;;;;;4.07;90.67;101553.41;5012944;28;20699;-68
2021/04/18 02:43:42;;;;;;;23.40;13.33;;;;;;;4.08;90.29;101563.97;5013173;28;20311;-68
2021/04/18 02:46:08;;;;;;;26.63;13.20;;;;;;;4.16;89.63;101557.72;4995103;28;20270;-68
2021/04/18 02:48:33;;;;;;;22.40;12.07;;;;;;;4.17;89.82;101568.25;5013069;28;20189;-68
2021/04/18 02:50:58;;;;;;;21.27;12.03;;;;;;;4.17;90.21;101557.69;5013297;28;20529;-68
2021/04/18 02:53:24;;;;;;;20.40;12.80;;;;;;;4.15;90.25;101563.91;5028277;28;20173;-68
2021/04/18 02:55:49;;;;;;;26.73;13.17;;;;;;;4.18;90.50;101564.72;5027917;28;20190;-68
2021/04/18 02:58:14;;;;;;;26.10;13.17;;;;;;;4.13;90.45;101560.41;5011297;28;20193;-68
2021/04/18 03:00:40;;;;;;;27.53;13.30;;;;;;;4.16;90.50;101557.72;5012604;28;20193;-66
2021/04/18 03:03:05;;;;;;;31.57;15.07;;;;;;;4.09;90.82;101567.50;5011429;28;20181;-67
2021/04/18 03:05:31;;;;;;;24.97;13.07;;;;;;;4.11;90.45;101564.84;5028447;28;20177;-67
2021/04/18 03:07:56;;;;;;;28.07;14.23;;;;;;;4.02;91.33;101561.41;5016268;28;20197;-67
2021/04/18 03:10:22;;;;;;;21.97;13.50;;;;;;;4.07;90.70;101559.56;5016168;28;20181;-67
2021/04/18 03:12:47;;;;;;;21.17;11.70;;;;;;;4.16;90.69;101565.66;5016741;28;20176;-67
2021/04/18 03:15:13;;;;;;;25.80;13.70;;;;;;;4.12;90.34;101563.94;5015972;28;20185;-67
2021/04/18 03:17:38;;;;;;;28.73;13.30;;;;;;;4.16;90.90;101568.28;5031261;28;20680;-68
2021/04/18 03:20:05;;;;;;;22.07;13.30;;;;;;;4.18;90.71;101558.56;5015950;28;20255;-67
2021/04/18 03:22:30;;;;;;;29.67;14.33;;;;;;;4.16;90.52;101573.56;5031120;28;20203;-67
2021/04/18 03:24:55;;;;;;;20.17;14.17;;;;;;;4.18;90.84;101555.91;5015829;28;20177;-67
2021/04/18 03:27:21;;;;;;;22.67;13.00;;;;;;;4.05;91.43;101552.56;5016284;28;20300;-67
2021/04/18 03:29:46;;;;;;;24.20;14.53;;;;;;;4.04;91.28;101553.47;5031291;28;20185;-67
2021/04/18 03:32:12;;;;;;;22.57;13.33;;;;;;;4.13;91.02;101549.84;5031675;28;20181;-67
2021/04/18 03:34:37;;;;;;;27.67;14.63;;;;;;;4.03;91.53;101563.16;5031875;28;20536;-66
2021/04/18 03:37:02;;;;;;;27.63;14.50;;;;;;;4.14;91.47;101560.38;5016316;28;20208;-67
2021/04/18 03:39:28;;;;;;;26.90;13.43;;;;;;;4.13;91.47;101561.28;5015866;28;20207;-67
2021/04/18 03:41:53;;;;;;;24.83;14.03;;;;;;;4.08;92.10;101556.03;5030839;28;20197;-67
2021/04/18 03:44:18;;;;;;;25.20;14.23;;;;;;;4.08;91.78;101561.31;5030849;28;20641;-67
2021/04/18 03:46:44;;;;;;;20.57;13.23;;;;;;;4.10;91.87;101563.09;5014163;28;20204;-67
2021/04/18 03:49:09;;;;;;;27.10;14.67;;;;;;;4.05;91.78;101566.66;5016010;28;20165;-66
2021/04/18 03:51:34;;;;;;;27.40;15.03;;;;;;;4.06;92.46;101565.75;5014148;28;20514;-67
2021/04/18 03:54:00;;;;;;;32.80;14.47;;;;;;;4.19;91.94;101560.31;5015513;28;20181;-67
2021/04/18 03:56:25;;;;;;;25.07;14.60;;;;;;;4.13;91.61;101557.75;5030522;28;20264;-67
2021/04/18 03:58:50;;;;;;;26.70;14.67;;;;;;;4.18;91.67;101558.56;5015596;28;20533;-67
2021/04/18 04:01:15;;;;;;;21.63;13.37;;;;;;;4.28;90.56;101563.69;5015463;28;20739;-67
2021/04/18 04:03:41;;;;;;;21.57;13.60;;;;;;;4.26;91.30;101559.31;5030626;28;20221;-67
2021/04/18 04:06:06;;;;;;;20.00;13.10;;;;;;;4.38;90.53;101551.19;5015070;28;20645;-67
2021/04/18 04:08:34;;;;;;;26.80;14.20;;;;;;;4.41;90.23;101556.41;5015183;28;20177;-67
2021/04/18 04:11:00;;;;;;;22.67;12.40;;;;;;;4.40;90.65;101563.47;5013859;28;20176;-67
2021/04/18 04:13:25;;;;;;;21.67;12.40;;;;;;;4.45;90.09;101547.53;5014892;28;20545;-67
2021/04/18 04:15:50;;;;;;;23.33;14.00;;;;;;;4.34;90.26;101539.78;5014170;28;20231;-68
2021/04/18 04:18:15;;;;;;;40.37;16.03;;;;;;;4.02;92.12;101545.56;5029545;28;20224;-68
2021/04/18 04:20:41;;;;;;;31.20;14.93;;;;;;;4.20;92.72;101548.84;5015147;28;20198;-68
2021/04/18 04:23:06;;;;;;;30.20;16.30;;;;;;;4.22;92.23;101552.34;5013857;28;20207;-68
2021/04/18 04:25:33;;;;;;;34.83;16.67;;;;;;;4.35;92.09;101554.75;5030331;28;20195;-67
2021/04/18 04:27:58;;;;;;;21.47;14.67;;;;;;;4.43;91.17;101549.34;5014892;28;20331;-67
2021/04/18 04:30:24;;;;;;;40.77;15.43;;;;;;;4.21;91.15;101551.47;5014902;28;20653;-67
2021/04/18 04:32:49;;;;;;;24.57;14.63;;;;;;;4.24;91.93;101538.19;5014678;28;20641;-67
2021/04/18 04:35:15;;;;;;;26.93;15.43;;;;;;;4.24;92.64;101548.78;5013486;28;20165;-67
2021/04/18 04:37:40;;;;;;;45.47;15.70;;;;;;;4.22;91.37;101539.13;5029840;28;20223;-67
2021/04/18 04:40:06;;;;;;;52.07;16.57;;;;;;;3.98;92.98;101538.59;5014793;28;20620;-67
2021/04/18 04:42:31;;;;;;;30.87;17.27;;;;;;;4.05;93.10;101540.22;5014712;28;20251;-67
2021/04/18 04:44:57;;;;;;;32.73;17.60;;;;;;;4.09;92.80;101535.81;5029584;28;20605;-67
2021/04/18 04:47:22;;;;;;;46.33;16.17;;;;;;;4.16;92.83;101526.88;5013091;28;20216;-67
2021/04/18 04:49:47;;;;;;;68.20;16.80;;;;;;;4.13;92.80;101526.06;5013215;28;20173;-67
2021/04/18 04:52:13;;;;;;;78.87;15.60;;;;;;;4.00;92.86;101528.88;5029990;28;20533;-67
2021/04/18 04:54:38;;;;;;;34.07;16.93;;;;;;;4.05;93.48;101539.38;5014314;28;20184;-67
2021/04/18 04:57:04;;;;;;;26.70;16.40;;;;;;;4.10;93.58;101549.88;5014412;28;20664;-67
2021/04/18 04:59:29;;;;;;;42.33;17.83;;;;;;;4.13;93.18;101540.16;5014068;28;20177;-67
2021/04/18 05:01:55;;;;;;;24.87;15.90;;;;;;;4.22;92.61;101544.41;5012890;28;20199;-67
2021/04/18 05:04:20;;;;;;;36.77;16.40;;;;;;;4.20;92.80;101543.56;5029297;28;20656;-67
2021/04/18 05:06:45;;;;;;;68.33;16.23;;;;;;;4.13;92.32;101548.06;5014180;28;20193;-67
2021/04/18 05:09:10;;;;;;;43.63;16.70;;;;;;;4.18;92.85;101555.91;5029259;28;20181;-67
2021/04/18 05:11:36;;;;;;;21.17;13.30;;;;;;;4.29;93.55;101561.91;5029310;28;20169;-67
2021/04/18 05:14:01;;;;;;;33.60;14.10;;;;;;;4.27;92.17;101563.69;5014281;28;20173;-67
2021/04/18 05:16:26;;;;;;;26.33;13.80;;;;;;;4.20;92.49;101564.69;5013992;28;20224;-67
2021/04/18 05:18:52;;;;;;;33.97;13.67;;;;;;;4.08;92.35;101548.09;5013825;28;20276;-67
2021/04/18 05:21:17;;;;;;;76.07;17.60;;;;;;;3.98;94.75;101554.44;5014020;28;20288;-68
2021/04/18 05:23:42;;;;;;;19.80;14.60;;;;;;;4.07;94.62;101562.22;5014341;28;20243;-67
2021/04/18 05:26:08;;;;;;;88.17;17.23;;;;;;;4.00;94.64;101562.34;5013652;28;20646;-67
2021/04/18 05:28:34;;;;;;;95.87;18.70;;;;;;;4.01;93.86;101562.31;5012895;28;20173;-67
2021/04/18 05:30:59;;;;;;;46.77;18.53;;;;;;;4.00;94.74;101557.91;5012406;28;20220;-67
2021/04/18 05:33:25;;;;;;;52.57;13.73;;;;;;;4.23;94.23;101556.72;5013624;28;20177;-67
2021/04/18 05:35:50;;;;;;;93.07;16.53;;;;;;;3.99;93.36;101558.81;5012491;28;20177;-67
2021/04/18 05:38:16;;;;;;;33.23;16.57;;;;;;;4.11;93.74;101564.84;5013571;28;20196;-67
2021/04/18 05:40:42;;;;;;;37.93;15.67;;;;;;;4.20;93.53;101576.13;5013521;28;20683;-67
2021/04/18 05:43:07;;;;;;;19.90;16.30;;;;;;;4.27;93.47;101577.78;5013393;28;20169;-67
2021/04/18 05:45:32;;;;;;;20.63;15.30;;;;;;;4.32;93.79;101583.00;5013446;28;20181;-67
2021/04/18 05:47:57;;;;;;;174.67;17.67;;;;;;;4.22;92.66;101584.91;5014579;28;20197;-67
2021/04/18 05:50:23;;;;;;;86.53;17.37;;;;;;;4.35;91.78;101575.03;5013632;28;20715;-67
2021/04/18 05:52:48;;;;;;;109.43;17.13;;;;;;;4.35;93.51;101580.31;5012080;28;20165;-67
2021/04/18 05:55:14;;;;;;;141.03;17.60;;;;;;;4.35;92.01;101575.91;5013494;28;20181;-67
2021/04/18 05:57:39;;;;;;;118.87;16.07;;;;;;;4.54;90.61;101570.34;5013374;28;20196;-67
2021/04/18 06:00:05;;;;;;;120.43;15.77;;;;;;;4.36;92.00;101563.56;5028369;28;20216;-67
2021/04/18 06:02:31;;;;;;;13.53;11.17;;;;;;;4.69;90.61;101563.00;5012936;28;20201;-67
2021/04/18 06:04:56;;;;;;;21.77;14.10;;;;;;;4.92;89.70;101580.25;5028470;28;20652;-67
2021/04/18 06:07:21;;;;;;;36.60;14.33;;;;;;;4.81;90.88;101580.41;5028585;28;20189;-67
2021/04/18 06:09:46;;;;;;;32.73;14.27;;;;;;;4.89;90.21;101582.97;5028511;28;20176;-68
2021/04/18 06:12:12;;;;;;;15.40;12.17;;;;;;;5.10;90.12;101586.97;5013943;28;20173;-67
2021/04/18 06:14:37;;;;;;;53.10;14.07;;;;;;;4.71;89.85;101595.59;5013144;28;20180;-67
2021/04/18 06:17:02;;;;;;;13.60;11.23;;;;;;;4.94;90.52;101586.41;5013106;28;20201;-68
2021/04/18 06:19:28;;;;;;;15.63;10.63;;;;;;;5.18;89.97;101582.41;5013636;28;20176;-68
2021/04/18 06:21:55;;;;;;;72.83;14.67;;;;;;;5.06;88.13;101569.41;5013246;28;20189;-68
2021/04/18 06:24:21;;;;;;;14.57;11.53;;;;;;;5.10;89.50;101577.25;5013228;28;20165;-67
2021/04/18 06:26:46;;;;;;;30.20;14.00;;;;;;;4.96;90.21;101574.00;5013079;28;20557;-68
2021/04/18 06:29:11;;;;;;;30.87;13.17;;;;;;;4.85;90.46;101575.97;5013140;28;20181;-67
2021/04/18 06:31:36;;;;;;;37.17;14.30;;;;;;;4.81;90.23;101574.25;5013270;28;20174;-67
2021/04/18 06:34:02;;;;;;;25.50;13.67;;;;;;;5.01;89.31;101573.03;5013553;28;20187;-67
2021/04/18 06:36:27;;;;;;;30.17;13.30;;;;;;;5.00;90.07;101576.56;5013540;28;20589;-67
2021/04/18 06:38:53;;;;;;;35.30;12.77;;;;;;;4.80;90.38;101564.59;5012400;28;20203;-67
2021/04/18 06:41:22;;;;;;;48.27;14.43;;;;;;;4.56;90.99;101561.47;5014751;28;20243;-67
2021/04/18 06:43:49;;;;;;;21.57;14.77;;;;;;;4.71;90.34;101557.69;5015935;28;20172;-67
2021/04/18 06:46:20;;;;;;;40.37;15.40;;;;;;;4.63;92.45;101568.41;5016612;28;20173;-68
2021/04/18 06:48:46;;;;;;;26.63;15.47;;;;;;;4.74;91.96;101577.91;5015943;28;20161;-69
2021/04/18 06:51:11;;;;;;;24.93;14.97;;;;;;;4.75;90.76;101579.66;5016953;28;20177;-68
2021/04/18 06:53:37;;;;;;;27.63;14.43;;;;;;;4.86;91.70;101589.19;5016659;28;20529;-67
2021/04/18 06:56:04;;;;;;;17.27;12.30;;;;;;;4.94;88.46;101581.97;5015677;28;20368;-68
2021/04/18 06:58:29;;;;;;;19.90;13.43;;;;;;;5.05;89.29;101587.06;5015184;28;20236;-68
2021/04/18 07:00:54;;;;;;;19.07;13.13;;;;;;;4.96;89.77;101582.81;5031945;28;20276;-67
2021/04/18 07:03:23;;;;;;;25.60;11.50;;;;;;;5.30;87.36;101585.72;5015277;28;20181;-68
2021/04/18 07:05:51;;;;;;;15.13;11.30;;;;;;;5.48;87.42;101588.91;5016661;28;20176;-67
2021/04/18 07:08:25;;;;;;;19.93;12.97;;;;;;;5.46;87.51;101588.94;5016447;28;20224;-69
2021/04/18 07:10:52;;;;;;;42.87;14.97;;;;;;;4.86;90.26;101593.59;5014975;28;20537;-68
2021/04/18 07:13:18;;;;;;;30.03;13.87;;;;;;;5.15;88.52;101582.47;5031528;28;20173;-68
2021/04/18 07:15:48;;;;;;;49.57;15.40;;;;;;;5.07;89.00;101584.38;5031927;28;20260;-68
2021/04/18 07:18:35;;;;;;;24.73;15.03;;;;;;;5.08;89.98;101573.78;5016360;28;20286;-68
2021/04/18 07:21:03;;;;;;;18.00;12.70;;;;;;;5.41;87.94;101577.56;5014701;28;20680;-68
2021/04/18 07:23:30;;;;;;;20.93;12.87;;;;;;;5.39;87.68;101581.13;5016201;28;20176;-68
2021/04/18 07:25:56;;;;;;;15.60;11.47;;;;;;;5.86;87.34;101580.16;5016022;28;20259;-67
2021/04/18 07:28:24;;;;;;;17.70;13.37;;;;;;;5.77;85.77;101562.69;5016400;28;20743;-68
2021/04/18 07:30:50;;;;;;;19.33;12.63;;;;;;;6.03;84.77;101564.81;5016041;28;20176;-68
2021/04/18 07:33:16;;;;;;;26.97;14.17;;;;;;;5.68;86.09;101568.19;5015829;28;20173;-68
2021/04/18 07:35:41;;;;;;;22.73;15.50;;;;;;;5.45;87.82;101563.34;5031079;28;20180;-68
2021/04/18 07:38:19;;;;;;;20.70;12.67;;;;;;;5.76;86.17;101566.25;5015738;28;20200;-69
2021/04/18 07:40:45;;;;;;;28.77;14.57;;;;;;;5.49;87.40;101580.91;5015870;28;20616;-68
2021/04/18 07:43:11;;;;;;;21.83;14.73;;;;;;;5.60;87.49;101578.94;5015826;28;20173;-68
2021/04/18 07:45:38;;;;;;;18.30;12.73;;;;;;;5.83;86.91;101580.22;5014536;28;20173;-68
2021/04/18 07:48:08;;;;;;;31.47;14.53;;;;;;;5.74;87.11;101585.72;5015237;28;20203;-67
2021/04/18 07:50:34;;;;;;;26.73;14.97;;;;;;;5.84;86.56;101589.91;5014322;28;20196;-67
2021/04/18 07:52:59;;;;;;;20.70;12.77;;;;;;;5.77;85.80;101594.47;5029932;28;20537;-67
2021/04/18 07:55:24;;;;;;;25.53;14.00;;;;;;;5.59;86.70;101593.09;5030616;28;20178;-68
2021/04/18 07:57:50;;;;;;;27.20;13.07;;;;;;;6.09;84.54;101595.59;5030700;28;20208;-67
2021/04/18 08:00:15;;;;;;;23.40;14.43;;;;;;;5.80;86.56;101598.84;5030615;28;20187;-67
2021/04/18 08:02:44;;;;;;;17.77;13.07;;;;;;;5.99;85.02;101591.41;5015772;28;20703;-68
2021/04/18 08:05:10;;;;;;;24.00;13.57;;;;;;;5.52;86.49;101594.09;5031612;28;20183;-69
2021/04/18 08:08:06;;;;;;;23.60;12.93;;;;;;;5.62;86.62;101597.44;5031031;28;20698;-68
2021/04/18 08:10:34;;;;;;;21.57;14.00;;;;;;;5.91;86.46;101596.84;5030339;28;20181;-68
2021/04/18 08:13:26;;;;;;;22.40;13.20;;;;;;;6.31;83.31;101599.47;5014262;28;20178;-68
2021/04/18 08:15:51;;;;;;;21.97;13.57;;;;;;;6.46;84.51;101606.22;4997710;28;20239;-69
2021/04/18 08:18:16;;;;;;;20.30;12.67;;;;;;;6.51;83.39;101605.19;5015013;28;20585;-68
2021/04/18 08:20:44;;;;;;;21.70;12.83;;;;;;;6.64;82.16;101602.25;5013942;28;20187;-68
2021/04/18 08:23:15;;;;;;;21.53;13.23;;;;;;;6.42;83.99;101602.78;5014812;28;20627;-68
2021/04/18 08:26:07;;;;;;;25.03;13.53;;;;;;;6.53;82.83;101607.81;5030242;28;20158;-68
2021/04/18 08:28:55;;;;;;;24.00;12.30;;;;;;;6.73;83.83;101608.22;5014969;28;20156;-68
2021/04/18 08:31:28;;;;;;;16.40;9.90;;;;;;;7.06;83.15;101597.63;5014816;28;20176;-68
2021/04/18 08:33:55;;;;;;;19.27;12.40;;;;;;;6.85;81.70;101591.97;5015465;28;20180;-69
2021/04/18 08:36:22;;;;;;;22.40;12.33;;;;;;;6.57;82.78;101582.97;5013743;28;20246;-68
2021/04/18 08:38:50;;;;;;;20.33;12.30;;;;;;;6.64;83.07;101591.63;5015036;28;20194;-68
2021/04/18 08:41:16;;;;;;;20.73;12.17;;;;;;;6.41;83.37;101589.56;5013562;28;20192;-69
2021/04/18 08:43:47;;;;;;;18.57;10.63;;;;;;;6.77;83.14;101563.91;5013793;28;20191;-68
2021/04/18 08:46:20;;;;;;;20.47;13.13;;;;;;;6.86;82.75;101564.53;5013859;28;20549;-67
2021/04/18 08:48:45;;;;;;;21.77;12.00;;;;;;;7.26;79.70;101562.59;5013993;28;20251;-68
2021/04/18 08:51:11;;;;;;;21.50;12.57;;;;;;;7.24;79.94;101551.16;5013602;28;20166;-67
2021/04/18 08:53:53;;;;;;;18.73;10.03;;;;;;;7.48;80.17;101555.78;5014778;28;20187;-68
2021/04/18 08:56:19;;;;;;;23.97;12.80;;;;;;;7.37;79.80;101537.47;5014257;28;20234;-67
2021/04/18 08:58:44;;;;;;;19.47;11.43;;;;;;;7.82;78.65;101537.06;5029509;28;20569;-67
2021/04/18 09:01:11;;;;;;;19.90;11.47;;;;;;;7.97;77.19;101522.41;5013055;28;20197;-68
2021/04/18 09:03:38;;;;;;;20.47;10.50;;;;;;;7.98;77.70;101506.44;5014412;28;20572;-67
2021/04/18 09:06:10;;;;;;;24.13;11.80;;;;;;;8.16;78.39;101491.66;5013012;28;20192;-68
2021/04/18 09:08:48;;;;;;;21.97;12.50;;;;;;;7.16;81.25;101493.84;5014808;28;20231;-68
2021/04/18 09:11:14;;;;;;;19.00;11.93;;;;;;;7.47;80.45;101495.59;5030285;28;20204;-67
2021/04/18 09:13:54;;;;;;;20.77;11.63;;;;;;;7.37;80.00;101513.56;5029659;28;20176;-67
2021/04/18 09:16:28;;;;;;;20.70;12.33;;;;;;;6.93;82.61;101513.94;5030780;28;20609;-68
2021/04/18 09:18:54;;;;;;;24.93;14.00;;;;;;;6.82;83.32;101540.78;5031402;28;20210;-68
2021/04/18 09:21:21;;;;;;;24.23;14.30;;;;;;;6.42;85.31;101548.88;5030080;28;20210;-67
2021/04/18 09:23:57;;;;;;;25.87;13.97;;;;;;;6.33;85.50;101555.28;5013275;28;20176;-67
2021/04/18 09:26:22;;;;;;;28.83;14.93;;;;;;;6.38;85.48;101552.50;5013073;28;20255;-68
2021/04/18 09:29:11;;;;;;;20.37;13.83;;;;;;;6.30;85.34;101550.00;5013274;28;20545;-67
2021/04/18 09:31:52;;;;;;;28.83;15.07;;;;;;;6.42;85.57;101536.50;5014616;28;20557;-68
2021/04/18 09:34:19;;;;;;;25.33;14.57;;;;;;;6.69;85.65;101526.97;5015153;28;20232;-69
2021/04/18 09:36:44;;;;;;;20.10;12.53;;;;;;;6.76;85.65;101527.69;5015376;28;20285;-68
2021/04/18 09:39:09;;;;;;;27.13;14.37;;;;;;;6.78;85.54;101537.34;5029609;28;20267;-68
2021/04/18 09:41:36;;;;;;;25.47;13.87;;;;;;;6.50;85.62;101557.50;5013827;28;20668;-68
2021/04/18 09:44:02;;;;;;;23.53;14.63;;;;;;;6.59;86.95;101558.13;5013922;28;20180;-69
2021/04/18 09:46:27;;;;;;;25.93;13.63;;;;;;;6.90;85.28;101557.38;5014068;28;20692;-69
2021/04/18 09:49:10;;;;;;;25.23;12.77;;;;;;;7.04;84.13;101557.84;5029614;28;20215;-69
2021/04/18 09:51:59;;;;;;;18.27;11.83;;;;;;;7.32;82.62;101565.94;5014184;28;20160;-69
2021/04/18 09:54:33;;;;;;;18.73;11.67;;;;;;;7.42;82.57;101564.78;5029455;28;20166;-70
2021/04/18 09:57:19;;;;;;;18.83;12.60;;;;;;;7.49;82.84;101565.50;5029580;28;20204;-69
2021/04/18 10:00:00;;;;;;;19.43;10.10;;;;;;;7.49;81.58;101555.75;5013142;28;20574;-69
2021/04/18 10:02:25;;;;;;;23.57;11.43;;;;;;;7.38;82.54;101551.63;5012612;28;20223;-68
2021/04/18 10:05:07;;;;;;;15.83;10.30;;;;;;;7.65;81.45;101553.50;5029224;28;20642;-69
2021/04/18 10:07:32;;;;;;;19.87;10.40;;;;;;;8.00;79.68;101559.53;5013560;28;20200;-68
2021/04/18 10:09:57;;;;;;;14.73;8.60;;;;;;;8.48;78.45;101557.13;5013519;28;20652;-68
2021/04/18 10:12:23;;;;;;;15.27;8.40;;;;;;;8.83;77.14;101545.31;5013557;28;20189;-68
2021/04/18 10:15:04;;;;;;;15.83;7.93;;;;;;;9.57;73.45;101544.41;5029403;28;20180;-68
2021/04/18 10:17:34;;;;;;;15.93;7.80;;;;;;;9.22;73.81;101543.03;5017231;28;20208;-68
2021/04/18 10:20:00;;;;;;;18.70;8.90;;;;;;;8.83;77.32;101547.97;5017623;28;20179;-68
2021/04/18 10:22:25;;;;;;;16.57;8.23;;;;;;;9.41;74.56;101545.94;5032761;28;20201;-68
2021/04/18 10:24:51;;;;;;;13.17;7.13;;;;;;;9.69;73.79;101546.66;5017301;28;20660;-70
2021/04/18 10:27:20;;;;;;;16.07;6.93;;;;;;;10.04;73.15;101547.09;5017402;28;20568;-69
2021/04/18 10:29:46;;;;;;;14.33;6.70;;;;;;;9.97;72.85;101548.22;5017504;28;20188;-69
2021/04/18 10:32:12;;;;;;;11.33;5.87;;;;;;;10.65;71.27;101540.13;5017412;28;20256;-68
2021/04/18 10:34:37;;;;;;;16.43;6.10;;;;;;;11.41;66.86;101540.41;5016074;28;20260;-68
2021/04/18 10:37:04;;;;;;;13.43;6.53;;;;;;;11.78;66.67;101545.84;5016276;28;20707;-68
2021/04/18 10:39:29;;;;;;;10.30;4.90;;;;;;;12.29;64.38;101536.28;5017622;28;20181;-69
2021/04/18 10:41:55;;;;;;;13.07;5.07;;;;;;;12.39;63.78;101532.19;5015883;28;20665;-68
2021/04/18 10:44:20;;;;;;;12.07;6.20;;;;;;;12.31;64.75;101528.19;5016393;28;20181;-68
2021/04/18 10:46:52;;;;;;;13.60;5.80;;;;;;;11.33;65.09;101526.53;5015871;28;20271;-70
2021/04/18 10:49:17;;;;;;;11.43;5.47;;;;;;;10.76;67.76;101512.97;5032258;28;20188;-69
2021/04/18 10:51:43;;;;;;;11.50;5.90;;;;;;;11.24;66.37;101520.66;5032602;28;20736;-68
2021/04/18 10:54:09;;;;;;;12.83;5.67;;;;;;;11.56;65.50;101510.31;5032653;28;20723;-70
2021/04/18 10:56:34;;;;;;;12.97;5.13;;;;;;;11.22;67.53;101500.28;5017342;28;20196;-69
2021/04/18 10:58:59;;;;;;;16.83;5.53;;;;;;;12.05;65.52;101506.22;5015685;28;20263;-68
2021/04/18 11:01:25;;;;;;;14.20;4.97;;;;;;;12.94;63.11;101497.25;5031525;28;20219;-68
2021/04/18 11:03:51;;;;;;;13.17;5.43;;;;;;;13.14;59.82;101491.72;5017321;28;20185;-68
2021/04/18 11:06:16;;;;;;;13.53;5.30;;;;;;;13.03;61.69;101488.75;5015939;28;20180;-68
2021/04/18 11:08:41;;;;;;;9.37;4.87;;;;;;;14.06;56.08;101481.31;5015310;28;20490;-69
2021/04/18 11:11:07;;;;;;;8.50;4.40;;;;;;;13.07;59.50;101476.06;5031647;28;20185;-68
2021/04/18 11:13:32;;;;;;;9.23;4.90;;;;;;;12.78;60.68;101467.72;5016530;28;20514;-68
2021/04/18 11:15:57;;;;;;;9.33;4.67;;;;;;;13.06;59.38;101469.84;5031425;28;20177;-68
2021/04/18 11:18:23;;;;;;;10.33;4.37;;;;;;;13.00;58.88;101474.63;5016475;28;20205;-68